sensor_id;sensor_type;location;lat;lon;timestamp;P1;durP1;ratioP1;P2;durP2;ratioP2
36547;SDS011;22551;52.206;4.856;2023-02-03T00:03:21;8.00;;;1.83;;
36547;SDS011;22551;52.206;4.856;2023-02-03T00:08:24;11.18;;;1.38;;
36547;SDS011;22551;52.206;4.856;2023-02-03T00:13:27;6.75;;;1.65;;
36547;SDS011;22551;52.206;4.856;2023-02-03T00:18:29;10.68;;;1.67;;
36547;SDS011;22551;52.206;4.856;2023-02-03T00:23:32;7.18;;;1.25;;
36547;SDS011;22551;52.206;4.856;2023-02-03T00:28:35;7.43;;;2.20;;
36547;SDS011;22551;52.206;4.856;2023-02-03T00:33:37;8.45;;;1.50;;
36547;SDS011;22551;52.206;4.856;2023-02-03T00:38:40;7.15;;;1.40;;
36547;SDS011;22551;52.206;4.856;2023-02-03T00:43:43;7.95;;;1.52;;
36547;SDS011;22551;52.206;4.856;2023-02-03T00:48:45;9.18;;;1.95;;
36547;SDS011;22551;52.206;4.856;2023-02-03T00:53:48;8.35;;;2.13;;
36547;SDS011;22551;52.206;4.856;2023-02-03T00:58:50;9.35;;;1.50;;
36547;SDS011;22551;52.206;4.856;2023-02-03T01:03:53;6.97;;;1.17;;
36547;SDS011;22551;52.206;4.856;2023-02-03T01:08:57;12.38;;;1.48;;
36547;SDS011;22551;52.206;4.856;2023-02-03T01:13:59;9.38;;;1.67;;
36547;SDS011;22551;52.206;4.856;2023-02-03T01:19:01;7.45;;;1.23;;
36547;SDS011;22551;52.206;4.856;2023-02-03T01:24:06;6.05;;;1.63;;
36547;SDS011;22551;52.206;4.856;2023-02-03T01:29:09;9.73;;;1.47;;
36547;SDS011;22551;52.206;4.856;2023-02-03T01:34:12;10.15;;;1.35;;
36547;SDS011;22551;52.206;4.856;2023-02-03T01:39:18;5.65;;;1.23;;
36547;SDS011;22551;52.206;4.856;2023-02-03T01:44:34;7.22;;;1.23;;
36547;SDS011;22551;52.206;4.856;2023-02-03T01:49:43;8.38;;;0.90;;
36547;SDS011;22551;52.206;4.856;2023-02-03T01:54:50;4.43;;;1.42;;
36547;SDS011;22551;52.206;4.856;2023-02-03T01:59:56;5.35;;;1.13;;
36547;SDS011;22551;52.206;4.856;2023-02-03T02:05:05;2.97;;;0.98;;
36547;SDS011;22551;52.206;4.856;2023-02-03T02:10:15;3.05;;;0.75;;
36547;SDS011;22551;52.206;4.856;2023-02-03T02:15:18;6.45;;;0.73;;
36547;SDS011;22551;52.206;4.856;2023-02-03T02:20:29;6.70;;;0.90;;
36547;SDS011;22551;52.206;4.856;2023-02-03T02:25:54;4.70;;;1.17;;
36547;SDS011;22551;52.206;4.856;2023-02-03T02:31:18;4.43;;;0.90;;
36547;SDS011;22551;52.206;4.856;2023-02-03T02:37:03;4.07;;;0.77;;
36547;SDS011;22551;52.206;4.856;2023-02-03T02:42:13;4.85;;;0.90;;
36547;SDS011;22551;52.206;4.856;2023-02-03T02:47:24;5.40;;;0.77;;
36547;SDS011;22551;52.206;4.856;2023-02-03T02:52:27;6.93;;;0.85;;
36547;SDS011;22551;52.206;4.856;2023-02-03T02:57:34;8.13;;;1.23;;
36547;SDS011;22551;52.206;4.856;2023-02-03T03:02:39;8.82;;;1.27;;
36547;SDS011;22551;52.206;4.856;2023-02-03T03:07:42;5.70;;;0.75;;
36547;SDS011;22551;52.206;4.856;2023-02-03T03:12:51;9.32;;;1.15;;
36547;SDS011;22551;52.206;4.856;2023-02-03T03:17:58;6.22;;;0.88;;
36547;SDS011;22551;52.206;4.856;2023-02-03T03:23:06;4.38;;;1.13;;
36547;SDS011;22551;52.206;4.856;2023-02-03T03:28:12;8.30;;;1.42;;
36547;SDS011;22551;52.206;4.856;2023-02-03T03:33:27;4.65;;;0.75;;
36547;SDS011;22551;52.206;4.856;2023-02-03T03:38:29;11.10;;;1.20;;
36547;SDS011;22551;52.206;4.856;2023-02-03T03:43:38;8.27;;;0.80;;
36547;SDS011;22551;52.206;4.856;2023-02-03T03:48:48;4.88;;;1.50;;
36547;SDS011;22551;52.206;4.856;2023-02-03T03:53:53;4.85;;;0.55;;
36547;SDS011;22551;52.206;4.856;2023-02-03T03:59:00;3.53;;;0.63;;
36547;SDS011;22551;52.206;4.856;2023-02-03T04:04:06;4.88;;;0.68;;
36547;SDS011;22551;52.206;4.856;2023-02-03T04:09:11;9.23;;;1.90;;
36547;SDS011;22551;52.206;4.856;2023-02-03T04:14:13;7.88;;;1.30;;
36547;SDS011;22551;52.206;4.856;2023-02-03T04:19:17;15.15;;;1.67;;
36547;SDS011;22551;52.206;4.856;2023-02-03T04:24:19;10.85;;;1.02;;
36547;SDS011;22551;52.206;4.856;2023-02-03T04:29:21;5.03;;;0.98;;
36547;SDS011;22551;52.206;4.856;2023-02-03T04:34:25;13.38;;;1.58;;
36547;SDS011;22551;52.206;4.856;2023-02-03T04:39:27;6.82;;;1.52;;
36547;SDS011;22551;52.206;4.856;2023-02-03T04:44:29;9.85;;;1.15;;
36547;SDS011;22551;52.206;4.856;2023-02-03T04:49:34;6.93;;;1.23;;
36547;SDS011;22551;52.206;4.856;2023-02-03T04:54:46;9.50;;;1.00;;
36547;SDS011;22551;52.206;4.856;2023-02-03T04:59:50;10.75;;;1.08;;
36547;SDS011;22551;52.206;4.856;2023-02-03T05:04:56;5.35;;;1.50;;
36547;SDS011;22551;52.206;4.856;2023-02-03T05:09:58;8.98;;;1.48;;
36547;SDS011;22551;52.206;4.856;2023-02-03T05:15:00;16.40;;;1.45;;
36547;SDS011;22551;52.206;4.856;2023-02-03T05:20:04;7.38;;;1.05;;
36547;SDS011;22551;52.206;4.856;2023-02-03T05:25:07;9.85;;;1.42;;
36547;SDS011;22551;52.206;4.856;2023-02-03T05:30:11;7.65;;;1.73;;
36547;SDS011;22551;52.206;4.856;2023-02-03T05:35:15;7.80;;;1.20;;
36547;SDS011;22551;52.206;4.856;2023-02-03T05:40:17;5.38;;;0.95;;
36547;SDS011;22551;52.206;4.856;2023-02-03T05:45:37;9.13;;;1.17;;
36547;SDS011;22551;52.206;4.856;2023-02-03T05:50:41;10.88;;;1.40;;
36547;SDS011;22551;52.206;4.856;2023-02-03T05:55:43;6.22;;;1.42;;
36547;SDS011;22551;52.206;4.856;2023-02-03T06:00:45;9.85;;;1.52;;
36547;SDS011;22551;52.206;4.856;2023-02-03T06:05:49;15.55;;;1.35;;
36547;SDS011;22551;52.206;4.856;2023-02-03T06:10:51;3.03;;;1.08;;
36547;SDS011;22551;52.206;4.856;2023-02-03T06:15:53;6.90;;;1.40;;
36547;SDS011;22551;52.206;4.856;2023-02-03T06:20:57;9.98;;;2.65;;
36547;SDS011;22551;52.206;4.856;2023-02-03T06:25:59;7.70;;;1.35;;
36547;SDS011;22551;52.206;4.856;2023-02-03T06:31:01;5.07;;;1.30;;
36547;SDS011;22551;52.206;4.856;2023-02-03T06:36:06;11.70;;;1.48;;
36547;SDS011;22551;52.206;4.856;2023-02-03T06:41:08;4.80;;;1.47;;
36547;SDS011;22551;52.206;4.856;2023-02-03T06:46:10;7.07;;;1.92;;
36547;SDS011;22551;52.206;4.856;2023-02-03T06:51:14;13.68;;;1.55;;
36547;SDS011;22551;52.206;4.856;2023-02-03T06:56:16;10.40;;;1.48;;
36547;SDS011;22551;52.206;4.856;2023-02-03T07:01:18;12.43;;;1.17;;
36547;SDS011;22551;52.206;4.856;2023-02-03T07:06:22;9.07;;;1.63;;
36547;SDS011;22551;52.206;4.856;2023-02-03T07:11:28;9.77;;;1.50;;
36547;SDS011;22551;52.206;4.856;2023-02-03T07:16:30;9.48;;;0.95;;
36547;SDS011;22551;52.206;4.856;2023-02-03T07:21:34;13.52;;;2.28;;
36547;SDS011;22551;52.206;4.856;2023-02-03T07:26:36;6.30;;;1.30;;
36547;SDS011;22551;52.206;4.856;2023-02-03T07:31:38;4.55;;;1.40;;
36547;SDS011;22551;52.206;4.856;2023-02-03T07:36:42;6.05;;;1.60;;
36547;SDS011;22551;52.206;4.856;2023-02-03T07:41:44;7.68;;;1.40;;
36547;SDS011;22551;52.206;4.856;2023-02-03T07:46:46;7.78;;;1.85;;
36547;SDS011;22551;52.206;4.856;2023-02-03T07:51:50;14.77;;;2.63;;
36547;SDS011;22551;52.206;4.856;2023-02-03T07:56:52;8.18;;;1.30;;
36547;SDS011;22551;52.206;4.856;2023-02-03T08:01:54;5.38;;;1.55;;
36547;SDS011;22551;52.206;4.856;2023-02-03T08:06:58;15.02;;;2.30;;
36547;SDS011;22551;52.206;4.856;2023-02-03T08:12:00;18.50;;;1.90;;
36547;SDS011;22551;52.206;4.856;2023-02-03T08:17:02;11.82;;;1.48;;
36547;SDS011;22551;52.206;4.856;2023-02-03T08:22:06;12.52;;;1.95;;
36547;SDS011;22551;52.206;4.856;2023-02-03T08:27:08;17.10;;;1.92;;
36547;SDS011;22551;52.206;4.856;2023-02-03T08:32:10;12.23;;;1.75;;
36547;SDS011;22551;52.206;4.856;2023-02-03T08:37:17;10.30;;;1.67;;
36547;SDS011;22551;52.206;4.856;2023-02-03T08:42:21;9.10;;;1.83;;
36547;SDS011;22551;52.206;4.856;2023-02-03T08:47:23;13.20;;;1.80;;
36547;SDS011;22551;52.206;4.856;2023-02-03T08:52:27;16.73;;;1.70;;
36547;SDS011;22551;52.206;4.856;2023-02-03T08:57:30;11.05;;;2.10;;
36547;SDS011;22551;52.206;4.856;2023-02-03T09:02:34;10.88;;;1.90;;
36547;SDS011;22551;52.206;4.856;2023-02-03T09:07:37;19.00;;;2.08;;
36547;SDS011;22551;52.206;4.856;2023-02-03T09:12:39;10.15;;;2.47;;
36547;SDS011;22551;52.206;4.856;2023-02-03T09:17:42;11.73;;;2.08;;
36547;SDS011;22551;52.206;4.856;2023-02-03T09:22:45;10.63;;;1.20;;
36547;SDS011;22551;52.206;4.856;2023-02-03T09:27:47;15.27;;;1.90;;
36547;SDS011;22551;52.206;4.856;2023-02-03T09:32:51;5.20;;;1.38;;
36547;SDS011;22551;52.206;4.856;2023-02-03T09:37:58;6.07;;;1.10;;
36547;SDS011;22551;52.206;4.856;2023-02-03T09:48:11;12.10;;;2.45;;
36547;SDS011;22551;52.206;4.856;2023-02-03T09:53:22;5.65;;;2.30;;
36547;SDS011;22551;52.206;4.856;2023-02-03T09:58:31;11.05;;;1.35;;
36547;SDS011;22551;52.206;4.856;2023-02-03T10:03:35;5.70;;;1.23;;
36547;SDS011;22551;52.206;4.856;2023-02-03T10:08:54;8.98;;;1.27;;
36547;SDS011;22551;52.206;4.856;2023-02-03T10:14:08;12.13;;;1.58;;
36547;SDS011;22551;52.206;4.856;2023-02-03T10:19:28;13.73;;;1.52;;
36547;SDS011;22551;52.206;4.856;2023-02-03T10:24:42;8.52;;;1.70;;
36547;SDS011;22551;52.206;4.856;2023-02-03T10:29:48;9.90;;;2.00;;
36547;SDS011;22551;52.206;4.856;2023-02-03T10:34:57;9.70;;;1.63;;
36547;SDS011;22551;52.206;4.856;2023-02-03T10:40:02;7.45;;;2.35;;
36547;SDS011;22551;52.206;4.856;2023-02-03T10:45:09;5.95;;;1.73;;
36547;SDS011;22551;52.206;4.856;2023-02-03T10:50:14;18.05;;;3.22;;
36547;SDS011;22551;52.206;4.856;2023-02-03T10:55:30;9.00;;;1.75;;
36547;SDS011;22551;52.206;4.856;2023-02-03T11:00:32;6.30;;;1.58;;
36547;SDS011;22551;52.206;4.856;2023-02-03T11:05:35;7.22;;;1.13;;
36547;SDS011;22551;52.206;4.856;2023-02-03T11:10:39;8.05;;;1.23;;
36547;SDS011;22551;52.206;4.856;2023-02-03T11:15:43;4.23;;;1.30;;
36547;SDS011;22551;52.206;4.856;2023-02-03T11:20:54;8.45;;;2.03;;
36547;SDS011;22551;52.206;4.856;2023-02-03T11:25:59;6.00;;;1.17;;
36547;SDS011;22551;52.206;4.856;2023-02-03T11:31:14;8.00;;;1.83;;
36547;SDS011;22551;52.206;4.856;2023-02-03T11:36:23;4.25;;;0.93;;
36547;SDS011;22551;52.206;4.856;2023-02-03T11:41:29;9.63;;;1.30;;
36547;SDS011;22551;52.206;4.856;2023-02-03T11:46:38;4.88;;;1.25;;
36547;SDS011;22551;52.206;4.856;2023-02-03T11:51:42;8.32;;;1.52;;
36547;SDS011;22551;52.206;4.856;2023-02-03T12:02:40;9.35;;;1.90;;
36547;SDS011;22551;52.206;4.856;2023-02-03T12:08:08;16.70;;;1.63;;
36547;SDS011;22551;52.206;4.856;2023-02-03T12:13:31;9.98;;;1.27;;
36547;SDS011;22551;52.206;4.856;2023-02-03T12:19:03;5.50;;;1.02;;
36547;SDS011;22551;52.206;4.856;2023-02-03T12:24:19;4.75;;;0.85;;
36547;SDS011;22551;52.206;4.856;2023-02-03T12:29:36;10.20;;;1.95;;
36547;SDS011;22551;52.206;4.856;2023-02-03T12:34:43;8.55;;;1.50;;
36547;SDS011;22551;52.206;4.856;2023-02-03T12:39:53;8.23;;;1.77;;
36547;SDS011;22551;52.206;4.856;2023-02-03T12:45:01;8.52;;;1.60;;
36547;SDS011;22551;52.206;4.856;2023-02-03T12:50:12;4.20;;;0.98;;
36547;SDS011;22551;52.206;4.856;2023-02-03T12:55:20;8.70;;;1.80;;
36547;SDS011;22551;52.206;4.856;2023-02-03T13:00:37;11.10;;;1.73;;
36547;SDS011;22551;52.206;4.856;2023-02-03T13:05:48;9.00;;;2.15;;
36547;SDS011;22551;52.206;4.856;2023-02-03T13:10:56;4.95;;;1.58;;
36547;SDS011;22551;52.206;4.856;2023-02-03T13:16:12;14.05;;;1.90;;
36547;SDS011;22551;52.206;4.856;2023-02-03T13:26:34;11.07;;;2.05;;
36547;SDS011;22551;52.206;4.856;2023-02-03T13:32:08;16.83;;;1.98;;
36547;SDS011;22551;52.206;4.856;2023-02-03T13:43:00;12.05;;;1.83;;
36547;SDS011;22551;52.206;4.856;2023-02-03T13:48:09;11.05;;;1.55;;
36547;SDS011;22551;52.206;4.856;2023-02-03T13:53:17;11.25;;;1.58;;
36547;SDS011;22551;52.206;4.856;2023-02-03T13:58:25;10.88;;;2.10;;
36547;SDS011;22551;52.206;4.856;2023-02-03T14:03:41;13.13;;;2.30;;
36547;SDS011;22551;52.206;4.856;2023-02-03T14:08:47;14.88;;;2.70;;
36547;SDS011;22551;52.206;4.856;2023-02-03T14:13:51;9.43;;;2.03;;
36547;SDS011;22551;52.206;4.856;2023-02-03T14:18:55;11.93;;;1.75;;
36547;SDS011;22551;52.206;4.856;2023-02-03T14:23:58;12.23;;;2.22;;
36547;SDS011;22551;52.206;4.856;2023-02-03T14:29:06;12.82;;;1.98;;
36547;SDS011;22551;52.206;4.856;2023-02-03T14:34:12;13.60;;;1.77;;
36547;SDS011;22551;52.206;4.856;2023-02-03T14:39:32;18.02;;;2.65;;
36547;SDS011;22551;52.206;4.856;2023-02-03T14:45:21;9.65;;;1.55;;
36547;SDS011;22551;52.206;4.856;2023-02-03T14:50:45;20.23;;;1.92;;
36547;SDS011;22551;52.206;4.856;2023-02-03T14:56:04;12.93;;;2.15;;
36547;SDS011;22551;52.206;4.856;2023-02-03T15:01:22;17.15;;;2.10;;
36547;SDS011;22551;52.206;4.856;2023-02-03T15:06:39;9.73;;;1.77;;
36547;SDS011;22551;52.206;4.856;2023-02-03T15:16:46;17.05;;;1.90;;
36547;SDS011;22551;52.206;4.856;2023-02-03T15:21:54;18.95;;;2.25;;
36547;SDS011;22551;52.206;4.856;2023-02-03T15:26:57;14.20;;;2.28;;
36547;SDS011;22551;52.206;4.856;2023-02-03T15:32:01;14.10;;;1.95;;
36547;SDS011;22551;52.206;4.856;2023-02-03T15:37:13;9.88;;;2.58;;
36547;SDS011;22551;52.206;4.856;2023-02-03T15:42:21;14.90;;;2.30;;
36547;SDS011;22551;52.206;4.856;2023-02-03T15:47:29;14.25;;;2.05;;
36547;SDS011;22551;52.206;4.856;2023-02-03T15:52:36;9.75;;;1.92;;
36547;SDS011;22551;52.206;4.856;2023-02-03T15:57:43;19.00;;;2.17;;
36547;SDS011;22551;52.206;4.856;2023-02-03T16:02:48;13.38;;;2.13;;
36547;SDS011;22551;52.206;4.856;2023-02-03T16:07:53;27.20;;;2.40;;
36547;SDS011;22551;52.206;4.856;2023-02-03T16:13:16;17.27;;;2.67;;
36547;SDS011;22551;52.206;4.856;2023-02-03T16:18:31;13.35;;;2.05;;
36547;SDS011;22551;52.206;4.856;2023-02-03T16:23:37;7.00;;;1.98;;
36547;SDS011;22551;52.206;4.856;2023-02-03T16:28:58;17.83;;;2.10;;
36547;SDS011;22551;52.206;4.856;2023-02-03T16:34:30;28.25;;;1.90;;
36547;SDS011;22551;52.206;4.856;2023-02-03T16:39:51;10.82;;;2.25;;
36547;SDS011;22551;52.206;4.856;2023-02-03T16:45:11;7.90;;;1.60;;
36547;SDS011;22551;52.206;4.856;2023-02-03T16:50:34;13.18;;;2.60;;
36547;SDS011;22551;52.206;4.856;2023-02-03T16:55:59;15.50;;;2.15;;
36547;SDS011;22551;52.206;4.856;2023-02-03T17:01:04;13.10;;;3.05;;
36547;SDS011;22551;52.206;4.856;2023-02-03T17:06:09;15.90;;;2.20;;
36547;SDS011;22551;52.206;4.856;2023-02-03T17:11:16;17.42;;;3.50;;
36547;SDS011;22551;52.206;4.856;2023-02-03T17:16:20;16.17;;;2.55;;
36547;SDS011;22551;52.206;4.856;2023-02-03T17:21:26;13.13;;;2.22;;
36547;SDS011;22551;52.206;4.856;2023-02-03T17:26:33;13.55;;;2.60;;
36547;SDS011;22551;52.206;4.856;2023-02-03T17:31:36;13.63;;;2.75;;
36547;SDS011;22551;52.206;4.856;2023-02-03T17:36:38;16.08;;;2.88;;
36547;SDS011;22551;52.206;4.856;2023-02-03T17:41:42;21.58;;;2.88;;
36547;SDS011;22551;52.206;4.856;2023-02-03T17:46:44;11.02;;;2.55;;
36547;SDS011;22551;52.206;4.856;2023-02-03T17:51:46;23.60;;;2.92;;
36547;SDS011;22551;52.206;4.856;2023-02-03T17:56:50;16.67;;;2.72;;
36547;SDS011;22551;52.206;4.856;2023-02-03T18:01:52;16.73;;;2.33;;
36547;SDS011;22551;52.206;4.856;2023-02-03T18:06:55;14.13;;;2.95;;
36547;SDS011;22551;52.206;4.856;2023-02-03T18:11:58;21.05;;;1.92;;
36547;SDS011;22551;52.206;4.856;2023-02-03T18:17:01;17.45;;;1.98;;
36547;SDS011;22551;52.206;4.856;2023-02-03T18:22:03;17.42;;;2.08;;
36547;SDS011;22551;52.206;4.856;2023-02-03T18:27:09;15.45;;;2.17;;
36547;SDS011;22551;52.206;4.856;2023-02-03T18:32:15;15.65;;;2.17;;
36547;SDS011;22551;52.206;4.856;2023-02-03T18:37:19;11.23;;;2.15;;
36547;SDS011;22551;52.206;4.856;2023-02-03T18:42:22;17.30;;;2.55;;
36547;SDS011;22551;52.206;4.856;2023-02-03T18:47:24;14.45;;;3.28;;
36547;SDS011;22551;52.206;4.856;2023-02-03T18:52:27;15.32;;;2.53;;
36547;SDS011;22551;52.206;4.856;2023-02-03T18:57:30;17.77;;;3.05;;
36547;SDS011;22551;52.206;4.856;2023-02-03T19:02:32;16.92;;;2.88;;
36547;SDS011;22551;52.206;4.856;2023-02-03T19:07:35;14.82;;;2.67;;
36547;SDS011;22551;52.206;4.856;2023-02-03T19:12:42;12.57;;;2.03;;
36547;SDS011;22551;52.206;4.856;2023-02-03T19:17:44;15.30;;;3.17;;
36547;SDS011;22551;52.206;4.856;2023-02-03T19:22:46;16.63;;;2.45;;
36547;SDS011;22551;52.206;4.856;2023-02-03T19:27:50;22.70;;;4.60;;
36547;SDS011;22551;52.206;4.856;2023-02-03T19:32:52;16.05;;;3.40;;
36547;SDS011;22551;52.206;4.856;2023-02-03T19:37:55;25.55;;;3.13;;
36547;SDS011;22551;52.206;4.856;2023-02-03T19:43:00;15.57;;;2.55;;
36547;SDS011;22551;52.206;4.856;2023-02-03T19:48:04;24.40;;;2.53;;
36547;SDS011;22551;52.206;4.856;2023-02-03T19:53:06;23.88;;;3.45;;
36547;SDS011;22551;52.206;4.856;2023-02-03T19:58:10;12.73;;;2.67;;
36547;SDS011;22551;52.206;4.856;2023-02-03T20:03:13;22.90;;;2.85;;
36547;SDS011;22551;52.206;4.856;2023-02-03T20:08:16;29.80;;;2.80;;
36547;SDS011;22551;52.206;4.856;2023-02-03T20:13:21;22.35;;;2.92;;
36547;SDS011;22551;52.206;4.856;2023-02-03T20:18:23;20.98;;;3.15;;
36547;SDS011;22551;52.206;4.856;2023-02-03T20:23:25;17.65;;;2.30;;
36547;SDS011;22551;52.206;4.856;2023-02-03T20:28:29;26.23;;;3.08;;
36547;SDS011;22551;52.206;4.856;2023-02-03T20:33:33;12.68;;;1.95;;
36547;SDS011;22551;52.206;4.856;2023-02-03T20:38:35;11.82;;;3.05;;
36547;SDS011;22551;52.206;4.856;2023-02-03T20:43:39;14.70;;;2.58;;
36547;SDS011;22551;52.206;4.856;2023-02-03T20:48:41;14.57;;;1.70;;
36547;SDS011;22551;52.206;4.856;2023-02-03T20:53:44;12.40;;;2.13;;
36547;SDS011;22551;52.206;4.856;2023-02-03T20:58:50;11.95;;;1.95;;
36547;SDS011;22551;52.206;4.856;2023-02-03T21:03:52;14.90;;;2.53;;
36547;SDS011;22551;52.206;4.856;2023-02-03T21:09:12;15.73;;;1.80;;
36547;SDS011;22551;52.206;4.856;2023-02-03T21:14:22;11.13;;;1.65;;
36547;SDS011;22551;52.206;4.856;2023-02-03T21:19:27;13.90;;;2.13;;
36547;SDS011;22551;52.206;4.856;2023-02-03T21:24:33;15.55;;;2.63;;
36547;SDS011;22551;52.206;4.856;2023-02-03T21:29:38;13.88;;;1.75;;
36547;SDS011;22551;52.206;4.856;2023-02-03T21:34:41;16.83;;;2.35;;
36547;SDS011;22551;52.206;4.856;2023-02-03T21:39:44;9.60;;;1.83;;
36547;SDS011;22551;52.206;4.856;2023-02-03T21:44:48;12.25;;;1.38;;
36547;SDS011;22551;52.206;4.856;2023-02-03T21:54:54;13.32;;;1.75;;
36547;SDS011;22551;52.206;4.856;2023-02-03T21:59:58;22.42;;;3.25;;
36547;SDS011;22551;52.206;4.856;2023-02-03T22:05:01;19.83;;;3.15;;
36547;SDS011;22551;52.206;4.856;2023-02-03T22:10:03;21.30;;;3.97;;
36547;SDS011;22551;52.206;4.856;2023-02-03T22:15:08;13.35;;;2.97;;
36547;SDS011;22551;52.206;4.856;2023-02-03T22:20:11;18.10;;;2.30;;
36547;SDS011;22551;52.206;4.856;2023-02-03T22:25:13;21.98;;;3.13;;
36547;SDS011;22551;52.206;4.856;2023-02-03T22:30:17;15.60;;;2.45;;
36547;SDS011;22551;52.206;4.856;2023-02-03T22:35:20;22.33;;;2.45;;
36547;SDS011;22551;52.206;4.856;2023-02-03T22:40:22;18.15;;;2.88;;
36547;SDS011;22551;52.206;4.856;2023-02-03T22:45:26;16.15;;;2.67;;
36547;SDS011;22551;52.206;4.856;2023-02-03T22:50:29;14.13;;;2.47;;
36547;SDS011;22551;52.206;4.856;2023-02-03T22:55:31;12.35;;;2.67;;
36547;SDS011;22551;52.206;4.856;2023-02-03T23:00:35;7.85;;;1.45;;
36547;SDS011;22551;52.206;4.856;2023-02-03T23:05:37;12.68;;;1.65;;
36547;SDS011;22551;52.206;4.856;2023-02-03T23:10:41;11.98;;;2.78;;
36547;SDS011;22551;52.206;4.856;2023-02-03T23:15:44;14.88;;;2.30;;
36547;SDS011;22551;52.206;4.856;2023-02-03T23:20:47;11.43;;;2.22;;
36547;SDS011;22551;52.206;4.856;2023-02-03T23:25:49;14.65;;;1.63;;
36547;SDS011;22551;52.206;4.856;2023-02-03T23:30:53;16.58;;;2.53;;
36547;SDS011;22551;52.206;4.856;2023-02-03T23:35:55;17.83;;;3.13;;
36547;SDS011;22551;52.206;4.856;2023-02-03T23:40:57;14.10;;;1.88;;
36547;SDS011;22551;52.206;4.856;2023-02-03T23:46:01;17.55;;;2.42;;
36547;SDS011;22551;52.206;4.856;2023-02-03T23:51:03;16.80;;;2.97;;
36547;SDS011;22551;52.206;4.856;2023-02-03T23:56:05;18.48;;;3.38;;
